createdAt,value
2019-06-08T00:01:32.410Z,20.37
2019-06-08T00:04:02.230Z,20.32
2019-06-08T00:06:32.014Z,20.35
2019-06-08T00:09:01.819Z,20.32
2019-06-08T00:11:33.151Z,20.28
2019-06-08T00:14:03.291Z,20.31
2019-06-08T00:16:33.410Z,20.33
2019-06-08T00:19:03.274Z,20.20
2019-06-08T00:21:33.438Z,20.25
2019-06-08T00:24:03.476Z,20.26
2019-06-08T00:26:33.249Z,20.18
2019-06-08T00:29:03.173Z,20.21
2019-06-08T00:31:32.950Z,20.26
2019-06-08T00:34:02.967Z,20.20
2019-06-08T00:36:34.020Z,20.19
2019-06-08T00:39:05.083Z,20.14
2019-06-08T00:41:35.476Z,20.14
2019-06-08T00:44:05.491Z,20.06
2019-06-08T00:46:35.404Z,20.03
2019-06-08T00:49:05.235Z,20.04
2019-06-08T00:51:35.019Z,20.02
2019-06-08T00:54:04.820Z,20.00
2019-06-08T00:56:34.714Z,20.04
2019-06-08T00:59:04.521Z,20.03
2019-06-08T01:01:35.412Z,20.10
2019-06-08T01:04:05.509Z,20.11
2019-06-08T01:06:35.314Z,20.14
2019-06-08T01:09:07.003Z,20.21
2019-06-08T01:11:36.873Z,20.14
2019-06-08T01:14:06.843Z,20.14
2019-06-08T01:16:36.828Z,20.21
2019-06-08T01:19:06.673Z,20.23
2019-06-08T01:21:36.854Z,20.24
2019-06-08T01:24:06.985Z,20.25
2019-06-08T01:26:36.778Z,20.27
2019-06-08T01:29:06.653Z,20.24
2019-06-08T01:31:36.554Z,20.17
2019-06-08T01:34:06.385Z,20.18
2019-06-08T01:36:36.149Z,20.16
2019-06-08T01:39:07.268Z,20.20
2019-06-08T01:41:37.052Z,20.21
2019-06-08T01:44:06.317Z,20.20
2019-06-08T01:46:36.192Z,20.26
2019-06-08T01:49:06.008Z,20.26
2019-06-08T01:51:35.807Z,20.25
2019-06-08T01:54:05.605Z,20.25
2019-06-08T01:56:35.412Z,20.25
2019-06-08T01:59:05.364Z,20.26
2019-06-08T02:01:35.143Z,20.22
2019-06-08T02:04:05.073Z,20.02
2019-06-08T02:06:34.877Z,19.82
2019-06-08T02:09:07.753Z,19.55
2019-06-08T02:11:37.539Z,19.46
2019-06-08T02:14:07.444Z,19.38
2019-06-08T02:16:37.212Z,19.15
2019-06-08T02:19:07.028Z,19.20
2019-06-08T02:21:36.914Z,19.08
2019-06-08T02:24:06.734Z,18.95
2019-06-08T02:26:36.511Z,18.95
2019-06-08T02:29:06.344Z,19.07
2019-06-08T02:31:37.751Z,18.98
2019-06-08T02:34:08.938Z,18.98
2019-06-08T02:36:40.856Z,18.92
2019-06-08T02:39:18.310Z,18.78
2019-06-08T02:42:00.276Z,18.79
2019-06-08T02:44:40.645Z,18.78
2019-06-08T02:47:16.325Z,18.80
2019-06-08T02:49:45.485Z,18.73
2019-06-08T02:52:16.041Z,18.57
2019-06-08T02:54:45.860Z,18.65
2019-06-08T02:57:17.684Z,18.66
2019-06-08T02:59:49.659Z,18.55
2019-06-08T03:02:21.486Z,18.59
2019-06-08T03:04:53.003Z,18.63
2019-06-08T03:07:23.844Z,18.63
2019-06-08T03:09:55.883Z,18.64
2019-06-08T03:12:27.230Z,18.61
2019-06-08T03:14:58.236Z,18.63
2019-06-08T03:17:27.967Z,18.65
2019-06-08T03:19:57.943Z,18.52
2019-06-08T03:22:27.677Z,18.53
2019-06-08T03:24:57.448Z,18.41
2019-06-08T03:27:27.267Z,18.44
2019-06-08T03:29:57.009Z,18.50
2019-06-08T03:32:26.772Z,18.44
2019-06-08T03:34:57.292Z,18.39
2019-06-08T03:37:27.225Z,18.38
2019-06-08T03:39:56.961Z,18.33
2019-06-08T03:42:26.698Z,18.35
2019-06-08T03:44:56.447Z,18.11
2019-06-08T03:47:26.255Z,18.05
2019-06-08T03:49:57.535Z,17.94
2019-06-08T03:52:27.506Z,17.71
2019-06-08T03:54:57.473Z,17.56
2019-06-08T03:57:27.243Z,17.29
2019-06-08T03:59:57.286Z,17.32
2019-06-08T04:02:27.014Z,17.30
2019-06-08T04:04:56.756Z,17.26
2019-06-08T04:07:26.807Z,17.29
2019-06-08T04:09:56.532Z,17.33
2019-06-08T04:12:26.259Z,17.28
2019-06-08T04:14:56.046Z,17.29
2019-06-08T04:17:26.035Z,17.33
2019-06-08T04:20:10.330Z,17.32
2019-06-08T04:22:28.895Z,17.32
2019-06-08T04:24:58.644Z,17.35
2019-06-08T04:27:28.384Z,17.29
2019-06-08T04:29:58.126Z,17.45
2019-06-08T04:32:27.859Z,17.49
2019-06-08T04:34:57.615Z,17.39
2019-06-08T04:37:27.755Z,17.37
2019-06-08T04:39:57.859Z,17.38
2019-06-08T04:42:27.918Z,17.48
2019-06-08T04:44:58.619Z,17.59
2019-06-08T04:47:28.678Z,17.51
2019-06-08T04:49:58.485Z,17.50
2019-06-08T04:52:28.264Z,17.55
2019-06-08T04:54:58.038Z,17.48
2019-06-08T04:57:27.855Z,17.52
2019-06-08T04:59:57.929Z,17.56
2019-06-08T05:02:27.687Z,17.55
2019-06-08T05:04:57.441Z,17.58
2019-06-08T05:07:27.219Z,17.77
2019-06-08T05:09:57.272Z,17.94
2019-06-08T05:12:28.083Z,18.01
2019-06-08T05:14:58.047Z,18.01
2019-06-08T05:17:27.804Z,17.91
2019-06-08T05:19:59.011Z,17.87
2019-06-08T05:22:28.769Z,17.92
2019-06-08T05:24:58.539Z,17.90
2019-06-08T05:27:29.970Z,18.05
2019-06-08T05:29:59.698Z,17.94
2019-06-08T05:32:29.733Z,18.07
2019-06-08T05:34:59.478Z,18.06
2019-06-08T05:37:29.280Z,18.06
2019-06-08T05:39:59.046Z,18.01
2019-06-08T05:42:28.841Z,18.17
2019-06-08T05:44:58.624Z,18.40
2019-06-08T05:47:28.353Z,18.65
2019-06-08T05:49:58.100Z,20.02
2019-06-08T05:52:27.919Z,21.40
2019-06-08T05:54:58.363Z,22.96
2019-06-08T05:57:28.090Z,22.83
2019-06-08T05:59:57.859Z,22.69
2019-06-08T06:02:27.596Z,21.48
2019-06-08T06:04:57.388Z,20.80
2019-06-08T06:07:27.092Z,20.28
2019-06-08T06:09:56.903Z,20.16
2019-06-08T06:12:26.697Z,20.16
2019-06-08T06:14:56.497Z,20.19
2019-06-08T06:17:26.259Z,19.98
2019-06-08T06:19:56.010Z,19.84
2019-06-08T06:22:26.043Z,19.71
2019-06-08T06:24:55.795Z,19.81
2019-06-08T06:27:25.561Z,19.77
2019-06-08T06:29:55.305Z,19.77
2019-06-08T06:32:25.075Z,19.68
2019-06-08T06:34:54.885Z,19.71
2019-06-08T06:37:24.801Z,19.64
2019-06-08T06:39:54.615Z,19.74
2019-06-08T06:42:25.190Z,19.46
2019-06-08T06:44:55.194Z,19.48
2019-06-08T06:47:24.927Z,19.49
2019-06-08T06:49:54.702Z,19.65
2019-06-08T06:52:24.408Z,19.65
2019-06-08T06:54:54.162Z,19.73
2019-06-08T06:57:23.944Z,19.90
2019-06-08T06:59:54.243Z,20.03
2019-06-08T07:02:24.132Z,20.15
2019-06-08T07:04:54.362Z,20.24
2019-06-08T07:07:24.253Z,20.19
2019-06-08T07:09:54.969Z,20.05
2019-06-08T07:12:24.924Z,20.15
2019-06-08T07:14:55.483Z,20.05
2019-06-08T07:17:25.302Z,19.93
2019-06-08T07:19:55.077Z,19.80
2019-06-08T07:22:25.037Z,19.85
2019-06-08T07:24:54.802Z,20.00
2019-06-08T07:27:24.539Z,19.83
2019-06-08T07:29:54.831Z,20.00
2019-06-08T07:32:24.718Z,20.14
2019-06-08T07:34:55.337Z,20.35
2019-06-08T07:37:25.277Z,20.47
2019-06-08T07:39:56.177Z,20.40
2019-06-08T07:42:26.039Z,20.31
2019-06-08T07:44:55.770Z,20.02
2019-06-08T07:47:25.626Z,19.77
2019-06-08T07:49:55.644Z,19.71
2019-06-08T07:52:25.643Z,19.66
2019-06-08T07:54:56.687Z,19.56
2019-06-08T07:57:26.531Z,19.47
2019-06-08T07:59:56.622Z,19.41
2019-06-08T08:02:26.395Z,19.41
2019-06-08T08:04:56.791Z,19.38
2019-06-08T08:07:27.424Z,19.35
2019-06-08T08:09:57.275Z,19.38
2019-06-08T08:12:27.077Z,19.51
2019-06-08T08:14:58.088Z,19.52
2019-06-08T08:17:28.199Z,19.63
2019-06-08T08:19:59.319Z,19.67
2019-06-08T08:22:30.468Z,19.44
2019-06-08T08:25:04.604Z,19.38
2019-06-08T08:27:33.138Z,19.24
2019-06-08T08:30:03.061Z,19.01
2019-06-08T08:32:32.817Z,18.99
2019-06-08T08:35:03.149Z,19.00
2019-06-08T08:37:33.002Z,19.07
2019-06-08T08:40:02.890Z,19.06
2019-06-08T08:42:32.630Z,19.12
2019-06-08T08:45:04.728Z,19.18
2019-06-08T08:47:34.083Z,19.28
2019-06-08T08:50:04.248Z,19.26
2019-06-08T08:52:37.435Z,19.17
2019-06-08T08:55:08.369Z,18.99
2019-06-08T08:57:41.504Z,18.99
2019-06-08T09:00:10.610Z,18.99
2019-06-08T09:02:40.366Z,19.13
2019-06-08T09:05:10.585Z,19.20
2019-06-08T09:07:40.327Z,19.25
2019-06-08T09:10:11.369Z,19.35
2019-06-08T09:12:41.381Z,19.33
2019-06-08T09:15:11.425Z,19.31
2019-06-08T09:17:41.163Z,19.38
2019-06-08T09:20:15.446Z,19.25
2019-06-08T09:22:56.243Z,19.19
2019-06-08T09:25:14.688Z,19.16
2019-06-08T09:27:44.788Z,19.13
2019-06-08T09:30:14.916Z,19.15
2019-06-08T09:32:44.924Z,19.05
2019-06-08T09:35:14.682Z,19.18
2019-06-08T09:37:44.430Z,19.26
2019-06-08T09:40:14.417Z,19.24
2019-06-08T09:42:44.300Z,19.58
2019-06-08T09:45:15.031Z,19.90
2019-06-08T09:47:45.005Z,20.10
2019-06-08T09:50:18.267Z,19.95
2019-06-08T09:52:47.872Z,19.72
2019-06-08T09:55:18.210Z,19.59
2019-06-08T09:57:48.520Z,19.62
2019-06-08T10:00:22.210Z,19.60
2019-06-08T10:02:50.347Z,19.37
2019-06-08T10:05:20.142Z,19.46
2019-06-08T10:07:49.900Z,19.32
2019-06-08T10:10:20.085Z,19.20
2019-06-08T10:12:49.856Z,19.15
2019-06-08T10:15:19.750Z,19.27
2019-06-08T10:17:49.506Z,19.27
2019-06-08T10:20:19.387Z,19.54
2019-06-08T10:22:50.526Z,19.62
2019-06-08T10:25:20.400Z,19.67
2019-06-08T10:27:50.473Z,19.29
2019-06-08T10:30:20.983Z,19.24
2019-06-08T10:32:51.078Z,19.13
2019-06-08T10:35:21.196Z,19.22
2019-06-08T10:37:55.084Z,19.21
2019-06-08T10:40:22.904Z,19.33
2019-06-08T10:42:52.648Z,19.58
2019-06-08T10:45:22.652Z,19.76
2019-06-08T10:47:52.381Z,19.70
2019-06-08T10:50:22.390Z,19.87
2019-06-08T10:52:52.156Z,19.98
2019-06-08T10:55:22.042Z,20.53
2019-06-08T10:57:52.196Z,20.53
2019-06-08T11:00:24.540Z,20.84
2019-06-08T11:02:54.713Z,20.96
2019-06-08T11:05:24.431Z,21.07
2019-06-08T11:07:54.172Z,21.16
2019-06-08T11:10:24.013Z,22.00
2019-06-08T11:12:54.020Z,22.16
2019-06-08T11:15:23.808Z,22.42
2019-06-08T11:17:53.614Z,22.71
2019-06-08T11:20:23.377Z,22.71
2019-06-08T11:22:53.127Z,23.23
2019-06-08T11:25:22.983Z,22.41
2019-06-08T11:27:52.729Z,22.10
2019-06-08T11:30:26.680Z,22.10
2019-06-08T11:32:54.555Z,21.94
2019-06-08T11:35:24.309Z,21.81
2019-06-08T11:37:54.171Z,21.73
2019-06-08T11:40:24.013Z,22.37
2019-06-08T11:42:54.052Z,23.51
2019-06-08T11:45:23.785Z,23.33
2019-06-08T11:47:53.543Z,23.50
2019-06-08T11:50:41.553Z,23.86
2019-06-08T11:53:12.663Z,24.08
2019-06-08T11:55:42.177Z,23.81
2019-06-08T11:58:13.763Z,23.24
2019-06-08T12:01:02.904Z,23.24
2019-06-08T12:03:31.204Z,22.30
2019-06-08T12:06:02.197Z,22.30
2019-06-08T12:08:33.005Z,22.23
2019-06-08T12:11:04.233Z,22.40
2019-06-08T12:13:34.766Z,22.25
2019-06-08T12:16:04.989Z,22.12
2019-06-08T12:18:34.813Z,22.04
2019-06-08T12:21:05.666Z,22.04
2019-06-08T12:23:35.512Z,22.81
2019-06-08T12:26:06.103Z,23.24
2019-06-08T12:28:38.060Z,23.60
2019-06-08T12:31:13.232Z,23.84
2019-06-08T12:33:39.476Z,23.99
2019-06-08T12:36:13.677Z,24.03
2019-06-08T12:38:40.870Z,23.94
2019-06-08T12:41:12.379Z,23.92
2019-06-08T12:43:42.137Z,24.05
2019-06-08T12:46:20.909Z,23.87
2019-06-08T12:48:49.066Z,23.79
2019-06-08T12:51:21.390Z,23.56
2019-06-08T12:53:51.482Z,23.29
2019-06-08T12:56:23.927Z,23.45
2019-06-08T12:58:53.065Z,23.41
2019-06-08T13:01:22.851Z,23.77
2019-06-08T13:03:52.591Z,23.59
2019-06-08T13:06:22.388Z,23.41
2019-06-08T13:08:52.200Z,23.59
2019-06-08T13:11:22.337Z,23.72
2019-06-08T13:13:52.108Z,23.86
2019-06-08T13:16:24.242Z,23.93
2019-06-08T13:18:58.840Z,23.93
2019-06-08T13:21:34.930Z,23.50
2019-06-08T13:24:00.433Z,23.35
2019-06-08T13:26:31.154Z,23.51
2019-06-08T13:29:01.122Z,23.68
2019-06-08T13:31:31.150Z,23.92
2019-06-08T13:34:01.026Z,23.82
2019-06-08T13:36:30.797Z,23.94
2019-06-08T13:39:01.541Z,23.95
2019-06-08T13:41:32.906Z,23.65
2019-06-08T13:44:03.725Z,23.23
2019-06-08T13:46:33.473Z,23.54
2019-06-08T13:49:03.373Z,23.43
2019-06-08T13:51:33.531Z,23.46
2019-06-08T13:54:04.599Z,23.50
2019-06-08T13:56:34.386Z,23.53
2019-06-08T13:59:04.191Z,23.54
2019-06-08T14:01:33.939Z,23.55
2019-06-08T14:04:13.095Z,23.66
2019-06-08T14:06:42.846Z,23.45
2019-06-08T14:09:12.640Z,23.46
2019-06-08T14:11:42.631Z,23.52
2019-06-08T14:14:12.699Z,23.62
2019-06-08T14:16:42.588Z,23.62
2019-06-08T14:19:12.344Z,23.75
2019-06-08T14:21:42.127Z,23.59
2019-06-08T14:24:11.917Z,23.62
2019-06-08T14:26:42.660Z,23.73
2019-06-08T14:29:12.751Z,23.52
2019-06-08T14:31:42.483Z,23.52
2019-06-08T14:34:12.274Z,23.38
2019-06-08T14:36:42.053Z,23.42
2019-06-08T14:39:12.070Z,23.49
2019-06-08T14:41:41.919Z,23.60
2019-06-08T14:44:11.667Z,23.57
2019-06-08T14:46:41.657Z,23.55
2019-06-08T14:49:12.423Z,23.44
2019-06-08T14:51:51.370Z,23.50
2019-06-08T14:54:25.126Z,23.69
2019-06-08T14:56:53.279Z,23.62
2019-06-08T14:59:23.859Z,23.35
2019-06-08T15:01:54.928Z,23.36
2019-06-08T15:04:28.433Z,23.30
2019-06-08T15:06:58.998Z,23.23
2019-06-08T15:09:29.904Z,23.28
2019-06-08T15:11:59.724Z,23.13
2019-06-08T15:14:34.853Z,23.15
2019-06-08T15:17:01.444Z,23.26
2019-06-08T15:19:32.619Z,23.06
2019-06-08T15:22:02.511Z,23.26
2019-06-08T15:24:32.989Z,23.31
2019-06-08T15:27:03.944Z,23.26
2019-06-08T15:29:33.761Z,23.26
2019-06-08T15:32:03.545Z,23.01
2019-06-08T15:34:33.681Z,23.01
2019-06-08T15:37:03.667Z,22.84
2019-06-08T15:39:34.121Z,22.55
2019-06-08T15:42:04.309Z,22.54
2019-06-08T15:44:34.063Z,22.68
2019-06-08T15:47:03.939Z,22.68
2019-06-08T15:49:34.017Z,22.55
2019-06-08T15:52:04.006Z,22.54
2019-06-08T15:54:37.529Z,22.51
2019-06-08T15:57:05.339Z,22.51
2019-06-08T15:59:38.921Z,22.55
2019-06-08T16:02:06.873Z,22.47
2019-06-08T16:04:36.658Z,22.46
2019-06-08T16:07:06.723Z,22.46
2019-06-08T16:09:37.263Z,22.53
2019-06-08T16:12:06.995Z,22.44
2019-06-08T16:14:36.760Z,22.43
2019-06-08T16:17:06.493Z,22.69
2019-06-08T16:19:36.276Z,22.55
2019-06-08T16:22:06.204Z,22.28
2019-06-08T16:24:36.358Z,22.28
2019-06-08T16:27:06.237Z,22.25
2019-06-08T16:29:35.973Z,22.08
2019-06-08T16:32:06.046Z,22.21
2019-06-08T16:34:35.793Z,21.93
2019-06-08T16:37:05.746Z,22.05
2019-06-08T16:39:35.558Z,22.06
2019-06-08T16:42:05.499Z,21.98
2019-06-08T16:44:36.389Z,21.98
2019-06-08T16:47:06.638Z,21.95
2019-06-08T16:49:36.369Z,21.97
2019-06-08T16:52:06.144Z,21.89
2019-06-08T16:54:37.258Z,21.68
2019-06-08T16:57:10.683Z,21.69
2019-06-08T16:59:38.844Z,21.66
2019-06-08T17:02:09.603Z,21.74
2019-06-08T17:04:39.348Z,21.72
2019-06-08T17:07:09.106Z,21.72
2019-06-08T17:09:40.039Z,21.78
2019-06-08T17:12:09.953Z,21.72
2019-06-08T17:14:40.635Z,21.69
2019-06-08T17:17:10.668Z,21.63
2019-06-08T17:19:40.504Z,21.73
2019-06-08T17:22:10.271Z,21.61
2019-06-08T17:24:40.752Z,21.66
2019-06-08T17:27:25.879Z,21.65
2019-06-08T17:29:42.376Z,21.60
2019-06-08T17:32:12.144Z,21.60
2019-06-08T17:34:42.448Z,21.59
2019-06-08T17:37:12.531Z,21.66
2019-06-08T17:39:42.843Z,21.56
2019-06-08T17:42:13.891Z,21.56
2019-06-08T17:44:44.016Z,21.50
2019-06-08T17:47:14.000Z,21.40
2019-06-08T17:49:43.829Z,21.36
2019-06-08T17:52:14.771Z,21.25
2019-06-08T17:54:44.511Z,21.11
2019-06-08T17:57:14.331Z,20.96
2019-06-08T17:59:45.422Z,20.93
2019-06-08T18:02:25.088Z,20.91
2019-06-08T18:04:48.503Z,20.87
2019-06-08T18:07:18.203Z,20.92
2019-06-08T18:09:48.457Z,20.90
2019-06-08T18:12:18.845Z,20.85
2019-06-08T18:14:49.014Z,20.83
2019-06-08T18:17:19.818Z,20.78
2019-06-08T18:19:49.911Z,20.75
2019-06-08T18:22:19.659Z,20.68
2019-06-08T18:24:49.690Z,20.61
2019-06-08T18:27:19.479Z,20.59
2019-06-08T18:29:49.285Z,20.54
2019-06-08T18:32:19.045Z,20.50
2019-06-08T18:34:48.796Z,20.45
2019-06-08T18:37:18.891Z,20.36
2019-06-08T18:39:49.421Z,20.36
2019-06-08T18:42:20.940Z,20.35
2019-06-08T18:44:50.698Z,20.27
2019-06-08T18:47:20.489Z,20.22
2019-06-08T18:49:50.308Z,20.22
2019-06-08T18:52:20.064Z,20.16
2019-06-08T18:54:50.014Z,20.06
2019-06-08T18:57:19.740Z,20.10
2019-06-08T18:59:53.037Z,19.98
2019-06-08T19:02:21.200Z,19.92
2019-06-08T19:04:50.993Z,19.94
2019-06-08T19:07:20.756Z,19.92
2019-06-08T19:09:50.557Z,19.88
2019-06-08T19:12:20.548Z,19.83
2019-06-08T19:14:52.282Z,19.77
2019-06-08T19:17:23.676Z,19.79
2019-06-08T19:19:53.437Z,19.80
2019-06-08T19:22:23.196Z,19.77
2019-06-08T19:24:53.057Z,19.68
2019-06-08T19:27:23.800Z,19.70
2019-06-08T19:29:53.653Z,19.64
2019-06-08T19:32:23.464Z,19.64
2019-06-08T19:34:54.783Z,19.57
2019-06-08T19:37:24.711Z,19.50
2019-06-08T19:39:54.797Z,19.47
2019-06-08T19:42:37.091Z,19.49
2019-06-08T19:45:04.991Z,19.38
2019-06-08T19:47:27.789Z,19.29
2019-06-08T19:49:57.913Z,19.35
2019-06-08T19:52:27.717Z,19.36
2019-06-08T19:54:58.096Z,19.32
2019-06-08T19:57:28.396Z,19.30
2019-06-08T20:00:00.440Z,19.21
2019-06-08T20:02:29.909Z,19.17
2019-06-08T20:04:59.745Z,19.17
2019-06-08T20:07:29.520Z,19.10
2019-06-08T20:09:59.425Z,19.07
2019-06-08T20:12:29.269Z,19.00
2019-06-08T20:14:59.083Z,18.95
2019-06-08T20:17:28.877Z,18.82
2019-06-08T20:19:58.679Z,18.87
2019-06-08T20:22:28.444Z,18.84
2019-06-08T20:24:58.600Z,18.77
2019-06-08T20:27:28.498Z,18.68
2019-06-08T20:29:58.471Z,18.73
2019-06-08T20:32:28.409Z,18.74
2019-06-08T20:34:58.186Z,18.72
2019-06-08T20:37:28.425Z,18.70
2019-06-08T20:40:09.699Z,18.68
2019-06-08T20:42:30.913Z,18.62
2019-06-08T20:45:00.839Z,18.58
2019-06-08T20:47:31.579Z,18.59
2019-06-08T20:50:01.336Z,18.49
2019-06-08T20:52:31.096Z,18.50
2019-06-08T20:55:00.818Z,18.41
2019-06-08T20:57:30.676Z,18.41
2019-06-08T21:00:00.419Z,18.33
2019-06-08T21:02:30.285Z,18.32
2019-06-08T21:05:00.091Z,18.26
2019-06-08T21:07:31.413Z,18.33
2019-06-08T21:10:01.245Z,18.27
2019-06-08T21:12:31.433Z,18.22
2019-06-08T21:15:01.305Z,18.20
2019-06-08T21:17:31.132Z,18.17
2019-06-08T21:20:00.999Z,18.18
2019-06-08T21:22:30.947Z,18.14
2019-06-08T21:25:00.769Z,18.12
2019-06-08T21:27:30.531Z,18.01
2019-06-08T21:30:08.450Z,18.00
2019-06-08T21:32:32.011Z,17.95
2019-06-08T21:35:01.782Z,17.91
2019-06-08T21:37:31.997Z,17.89
2019-06-08T21:40:04.172Z,17.85
2019-06-08T21:42:36.951Z,17.84
2019-06-08T21:45:09.520Z,17.82
2019-06-08T21:47:38.067Z,17.76
2019-06-08T21:50:08.399Z,17.65
2019-06-08T21:52:38.175Z,17.62
2019-06-08T21:55:08.381Z,17.64
2019-06-08T21:57:38.481Z,17.60
2019-06-08T22:00:27.196Z,17.58
2019-06-08T22:02:43.127Z,17.55
2019-06-08T22:05:13.331Z,17.54
2019-06-08T22:07:43.086Z,17.56
2019-06-08T22:10:13.365Z,17.55
2019-06-08T22:12:43.124Z,17.53
2019-06-08T22:15:13.252Z,17.52
2019-06-08T22:17:43.323Z,17.55
2019-06-08T22:20:13.258Z,17.55
2019-06-08T22:22:43.228Z,17.55
2019-06-08T22:25:13.346Z,17.53
2019-06-08T22:27:43.176Z,17.50
2019-06-08T22:30:22.830Z,17.51
2019-06-08T22:32:47.211Z,17.53
2019-06-08T22:35:16.298Z,17.47
2019-06-08T22:37:48.072Z,17.44
2019-06-08T22:40:17.730Z,17.44
2019-06-08T22:42:48.177Z,17.40
2019-06-08T22:45:18.112Z,17.38
2019-06-08T22:47:48.014Z,17.34
2019-06-08T22:50:18.525Z,17.33
2019-06-08T22:52:48.373Z,17.33
2019-06-08T22:55:18.727Z,17.31
2019-06-08T22:57:48.568Z,17.31
2019-06-08T23:00:21.690Z,17.25
2019-06-08T23:02:51.043Z,17.23
2019-06-08T23:05:20.790Z,17.17
2019-06-08T23:07:51.519Z,17.17
2019-06-08T23:10:21.357Z,17.15
2019-06-08T23:12:51.106Z,17.09
2019-06-08T23:15:20.842Z,17.05
2019-06-08T23:17:50.918Z,17.08
2019-06-08T23:20:21.003Z,17.07
2019-06-08T23:22:50.773Z,16.98
2019-06-08T23:25:20.535Z,16.93
2019-06-08T23:27:50.316Z,16.89
2019-06-08T23:30:20.166Z,16.84
2019-06-08T23:32:49.899Z,16.84
2019-06-08T23:35:19.717Z,16.85
2019-06-08T23:37:49.457Z,16.85
2019-06-08T23:40:19.389Z,16.79
2019-06-08T23:42:49.138Z,16.80
2019-06-08T23:45:18.950Z,16.85
2019-06-08T23:47:48.917Z,16.81
2019-06-08T23:50:19.370Z,16.82
2019-06-08T23:52:49.423Z,16.78
2019-06-08T23:55:19.411Z,16.74
2019-06-08T23:57:49.164Z,16.67
